sensor_id;sensor_type;location;lat;lon;timestamp;P1;durP1;ratioP1;P2;durP2;ratioP2
52041;SDS011;38052;45.944;13.624;2023-04-30T00:00:25;6.03;;;3.53;;
52041;SDS011;38052;45.944;13.624;2023-04-30T00:02:52;8.32;;;4.15;;
52041;SDS011;38052;45.944;13.624;2023-04-30T00:05:18;6.82;;;4.35;;
52041;SDS011;38052;45.944;13.624;2023-04-30T00:07:45;10.00;;;4.40;;
52041;SDS011;38052;45.944;13.624;2023-04-30T00:10:12;7.88;;;4.10;;
52041;SDS011;38052;45.944;13.624;2023-04-30T00:12:38;8.32;;;4.10;;
52041;SDS011;38052;45.944;13.624;2023-04-30T00:15:05;5.72;;;3.35;;
52041;SDS011;38052;45.944;13.624;2023-04-30T00:17:32;6.07;;;4.00;;
52041;SDS011;38052;45.944;13.624;2023-04-30T00:19:58;9.10;;;4.55;;
52041;SDS011;38052;45.944;13.624;2023-04-30T00:22:25;7.68;;;3.78;;
52041;SDS011;38052;45.944;13.624;2023-04-30T00:24:51;6.63;;;4.25;;
52041;SDS011;38052;45.944;13.624;2023-04-30T00:27:18;7.25;;;4.40;;
52041;SDS011;38052;45.944;13.624;2023-04-30T00:29:44;7.00;;;5.15;;
52041;SDS011;38052;45.944;13.624;2023-04-30T00:32:11;10.45;;;4.53;;
52041;SDS011;38052;45.944;13.624;2023-04-30T00:34:38;8.25;;;6.05;;
52041;SDS011;38052;45.944;13.624;2023-04-30T00:37:05;6.32;;;4.82;;
52041;SDS011;38052;45.944;13.624;2023-04-30T00:39:31;10.10;;;4.65;;
52041;SDS011;38052;45.944;13.624;2023-04-30T00:41:57;6.30;;;4.07;;
52041;SDS011;38052;45.944;13.624;2023-04-30T00:44:24;5.68;;;4.10;;
52041;SDS011;38052;45.944;13.624;2023-04-30T00:46:51;13.30;;;4.28;;
52041;SDS011;38052;45.944;13.624;2023-04-30T00:49:17;5.93;;;4.07;;
52041;SDS011;38052;45.944;13.624;2023-04-30T00:51:44;8.18;;;4.53;;
52041;SDS011;38052;45.944;13.624;2023-04-30T00:54:10;6.30;;;3.92;;
52041;SDS011;38052;45.944;13.624;2023-04-30T00:56:37;6.90;;;3.83;;
52041;SDS011;38052;45.944;13.624;2023-04-30T00:59:03;6.90;;;3.97;;
52041;SDS011;38052;45.944;13.624;2023-04-30T01:01:30;8.57;;;4.07;;
52041;SDS011;38052;45.944;13.624;2023-04-30T01:03:56;7.40;;;3.63;;
52041;SDS011;38052;45.944;13.624;2023-04-30T01:06:23;6.00;;;4.10;;
52041;SDS011;38052;45.944;13.624;2023-04-30T01:08:50;7.88;;;4.78;;
52041;SDS011;38052;45.944;13.624;2023-04-30T01:11:21;8.85;;;4.18;;
52041;SDS011;38052;45.944;13.624;2023-04-30T01:13:57;6.43;;;3.33;;
52041;SDS011;38052;45.944;13.624;2023-04-30T01:16:25;6.07;;;3.90;;
52041;SDS011;38052;45.944;13.624;2023-04-30T01:18:55;8.52;;;3.88;;
52041;SDS011;38052;45.944;13.624;2023-04-30T01:21:22;5.25;;;3.85;;
52041;SDS011;38052;45.944;13.624;2023-04-30T01:28:45;6.13;;;3.47;;
52041;SDS011;38052;45.944;13.624;2023-04-30T01:31:13;7.05;;;4.38;;
52041;SDS011;38052;45.944;13.624;2023-04-30T01:33:40;6.00;;;3.50;;
52041;SDS011;38052;45.944;13.624;2023-04-30T01:41:09;8.30;;;4.10;;
52041;SDS011;38052;45.944;13.624;2023-04-30T01:46:13;9.60;;;4.78;;
52041;SDS011;38052;45.944;13.624;2023-04-30T01:48:52;5.43;;;3.75;;
52041;SDS011;38052;45.944;13.624;2023-04-30T01:53:52;6.40;;;3.80;;
52041;SDS011;38052;45.944;13.624;2023-04-30T01:56:27;7.20;;;4.18;;
52041;SDS011;38052;45.944;13.624;2023-04-30T01:58:56;9.32;;;4.80;;
52041;SDS011;38052;45.944;13.624;2023-04-30T02:03:51;5.03;;;3.85;;
52041;SDS011;38052;45.944;13.624;2023-04-30T02:06:18;5.88;;;3.78;;
52041;SDS011;38052;45.944;13.624;2023-04-30T02:08:44;8.65;;;4.40;;
52041;SDS011;38052;45.944;13.624;2023-04-30T02:11:11;4.88;;;4.10;;
52041;SDS011;38052;45.944;13.624;2023-04-30T02:13:38;7.63;;;3.85;;
52041;SDS011;38052;45.944;13.624;2023-04-30T02:16:04;6.68;;;4.20;;
52041;SDS011;38052;45.944;13.624;2023-04-30T02:18:30;8.38;;;4.05;;
52041;SDS011;38052;45.944;13.624;2023-04-30T02:20:57;11.05;;;4.03;;
52041;SDS011;38052;45.944;13.624;2023-04-30T02:23:24;5.88;;;4.18;;
52041;SDS011;38052;45.944;13.624;2023-04-30T02:25:51;9.80;;;4.82;;
52041;SDS011;38052;45.944;13.624;2023-04-30T02:28:17;9.98;;;4.45;;
52041;SDS011;38052;45.944;13.624;2023-04-30T02:30:44;10.23;;;4.05;;
52041;SDS011;38052;45.944;13.624;2023-04-30T02:33:10;6.43;;;3.67;;
52041;SDS011;38052;45.944;13.624;2023-04-30T02:35:39;4.75;;;4.03;;
52041;SDS011;38052;45.944;13.624;2023-04-30T02:38:05;6.82;;;4.15;;
52041;SDS011;38052;45.944;13.624;2023-04-30T02:40:32;6.03;;;4.50;;
52041;SDS011;38052;45.944;13.624;2023-04-30T02:42:59;5.30;;;3.95;;
52041;SDS011;38052;45.944;13.624;2023-04-30T02:45:25;5.32;;;3.40;;
52041;SDS011;38052;45.944;13.624;2023-04-30T02:47:51;5.22;;;4.28;;
52041;SDS011;38052;45.944;13.624;2023-04-30T02:50:18;6.70;;;4.15;;
52041;SDS011;38052;45.944;13.624;2023-04-30T02:52:45;6.95;;;4.30;;
52041;SDS011;38052;45.944;13.624;2023-04-30T02:55:11;6.38;;;3.80;;
52041;SDS011;38052;45.944;13.624;2023-04-30T02:57:37;5.75;;;3.70;;
52041;SDS011;38052;45.944;13.624;2023-04-30T03:00:04;9.77;;;4.60;;
52041;SDS011;38052;45.944;13.624;2023-04-30T03:02:31;7.00;;;4.90;;
52041;SDS011;38052;45.944;13.624;2023-04-30T03:04:57;12.57;;;4.97;;
52041;SDS011;38052;45.944;13.624;2023-04-30T03:07:23;6.55;;;3.72;;
52041;SDS011;38052;45.944;13.624;2023-04-30T03:09:50;8.25;;;5.95;;
52041;SDS011;38052;45.944;13.624;2023-04-30T03:12:18;6.95;;;4.10;;
52041;SDS011;38052;45.944;13.624;2023-04-30T03:14:44;6.25;;;4.55;;
52041;SDS011;38052;45.944;13.624;2023-04-30T03:17:11;7.82;;;5.28;;
52041;SDS011;38052;45.944;13.624;2023-04-30T03:19:38;6.50;;;4.47;;
52041;SDS011;38052;45.944;13.624;2023-04-30T03:22:04;7.18;;;4.70;;
52041;SDS011;38052;45.944;13.624;2023-04-30T03:24:31;9.82;;;4.57;;
52041;SDS011;38052;45.944;13.624;2023-04-30T03:26:58;5.63;;;4.90;;
52041;SDS011;38052;45.944;13.624;2023-04-30T03:29:25;8.60;;;3.72;;
52041;SDS011;38052;45.944;13.624;2023-04-30T03:31:52;5.55;;;4.38;;
52041;SDS011;38052;45.944;13.624;2023-04-30T03:34:18;12.48;;;4.10;;
52041;SDS011;38052;45.944;13.624;2023-04-30T03:36:45;6.88;;;4.93;;
52041;SDS011;38052;45.944;13.624;2023-04-30T03:39:11;6.75;;;4.18;;
52041;SDS011;38052;45.944;13.624;2023-04-30T03:41:38;7.65;;;4.05;;
52041;SDS011;38052;45.944;13.624;2023-04-30T03:44:04;5.80;;;4.15;;
52041;SDS011;38052;45.944;13.624;2023-04-30T03:46:30;6.82;;;4.82;;
52041;SDS011;38052;45.944;13.624;2023-04-30T03:48:56;6.25;;;4.32;;
52041;SDS011;38052;45.944;13.624;2023-04-30T03:51:23;14.90;;;4.72;;
52041;SDS011;38052;45.944;13.624;2023-04-30T03:53:49;7.15;;;4.20;;
52041;SDS011;38052;45.944;13.624;2023-04-30T03:56:16;7.97;;;4.93;;
52041;SDS011;38052;45.944;13.624;2023-04-30T03:58:42;4.85;;;4.18;;
52041;SDS011;38052;45.944;13.624;2023-04-30T04:01:09;5.53;;;4.53;;
52041;SDS011;38052;45.944;13.624;2023-04-30T04:03:35;11.43;;;5.68;;
52041;SDS011;38052;45.944;13.624;2023-04-30T04:06:02;9.68;;;4.72;;
52041;SDS011;38052;45.944;13.624;2023-04-30T04:08:29;7.97;;;5.75;;
52041;SDS011;38052;45.944;13.624;2023-04-30T04:10:56;7.05;;;4.32;;
52041;SDS011;38052;45.944;13.624;2023-04-30T04:13:23;7.60;;;5.70;;
52041;SDS011;38052;45.944;13.624;2023-04-30T04:15:49;7.80;;;5.43;;
52041;SDS011;38052;45.944;13.624;2023-04-30T04:18:16;9.65;;;5.40;;
52041;SDS011;38052;45.944;13.624;2023-04-30T04:20:42;8.15;;;5.55;;
52041;SDS011;38052;45.944;13.624;2023-04-30T04:23:09;7.07;;;6.07;;
52041;SDS011;38052;45.944;13.624;2023-04-30T04:25:36;7.28;;;4.57;;
52041;SDS011;38052;45.944;13.624;2023-04-30T04:28:03;7.88;;;5.75;;
52041;SDS011;38052;45.944;13.624;2023-04-30T04:30:30;6.22;;;5.18;;
52041;SDS011;38052;45.944;13.624;2023-04-30T04:32:56;6.63;;;5.00;;
52041;SDS011;38052;45.944;13.624;2023-04-30T04:35:22;6.75;;;4.18;;
52041;SDS011;38052;45.944;13.624;2023-04-30T04:37:49;7.05;;;5.18;;
52041;SDS011;38052;45.944;13.624;2023-04-30T04:40:16;6.05;;;5.35;;
52041;SDS011;38052;45.944;13.624;2023-04-30T04:42:42;10.55;;;5.25;;
52041;SDS011;38052;45.944;13.624;2023-04-30T04:45:09;7.70;;;5.32;;
52041;SDS011;38052;45.944;13.624;2023-04-30T04:47:35;10.77;;;5.97;;
52041;SDS011;38052;45.944;13.624;2023-04-30T04:50:02;7.22;;;5.72;;
52041;SDS011;38052;45.944;13.624;2023-04-30T04:52:28;11.93;;;5.68;;
52041;SDS011;38052;45.944;13.624;2023-04-30T04:54:54;8.45;;;4.95;;
52041;SDS011;38052;45.944;13.624;2023-04-30T04:57:20;8.30;;;4.82;;
52041;SDS011;38052;45.944;13.624;2023-04-30T04:59:47;6.80;;;4.60;;
52041;SDS011;38052;45.944;13.624;2023-04-30T05:02:13;6.13;;;4.18;;
52041;SDS011;38052;45.944;13.624;2023-04-30T05:04:40;5.15;;;4.65;;
52041;SDS011;38052;45.944;13.624;2023-04-30T05:07:07;12.98;;;5.22;;
52041;SDS011;38052;45.944;13.624;2023-04-30T05:09:33;10.65;;;4.65;;
52041;SDS011;38052;45.944;13.624;2023-04-30T05:12:00;8.68;;;4.47;;
52041;SDS011;38052;45.944;13.624;2023-04-30T05:14:27;8.63;;;4.65;;
52041;SDS011;38052;45.944;13.624;2023-04-30T05:16:53;6.22;;;3.35;;
52041;SDS011;38052;45.944;13.624;2023-04-30T05:19:19;6.68;;;4.05;;
52041;SDS011;38052;45.944;13.624;2023-04-30T05:21:46;6.68;;;3.63;;
52041;SDS011;38052;45.944;13.624;2023-04-30T05:24:12;9.63;;;3.95;;
52041;SDS011;38052;45.944;13.624;2023-04-30T05:26:38;4.32;;;3.30;;
52041;SDS011;38052;45.944;13.624;2023-04-30T05:29:05;12.57;;;3.67;;
52041;SDS011;38052;45.944;13.624;2023-04-30T05:31:32;7.43;;;3.63;;
52041;SDS011;38052;45.944;13.624;2023-04-30T05:33:58;7.53;;;4.45;;
52041;SDS011;38052;45.944;13.624;2023-04-30T05:36:25;4.25;;;3.42;;
52041;SDS011;38052;45.944;13.624;2023-04-30T05:38:52;5.20;;;4.03;;
52041;SDS011;38052;45.944;13.624;2023-04-30T05:41:19;9.90;;;4.47;;
52041;SDS011;38052;45.944;13.624;2023-04-30T05:43:46;8.90;;;4.13;;
52041;SDS011;38052;45.944;13.624;2023-04-30T05:46:12;7.43;;;3.85;;
52041;SDS011;38052;45.944;13.624;2023-04-30T05:48:38;7.53;;;4.22;;
52041;SDS011;38052;45.944;13.624;2023-04-30T05:51:05;9.85;;;4.32;;
52041;SDS011;38052;45.944;13.624;2023-04-30T05:53:31;9.20;;;4.55;;
52041;SDS011;38052;45.944;13.624;2023-04-30T05:55:58;8.75;;;4.45;;
52041;SDS011;38052;45.944;13.624;2023-04-30T05:58:24;5.28;;;4.65;;
52041;SDS011;38052;45.944;13.624;2023-04-30T06:00:51;6.82;;;5.00;;
52041;SDS011;38052;45.944;13.624;2023-04-30T06:03:18;8.82;;;4.47;;
52041;SDS011;38052;45.944;13.624;2023-04-30T06:05:44;5.00;;;3.90;;
52041;SDS011;38052;45.944;13.624;2023-04-30T06:08:10;6.53;;;4.35;;
52041;SDS011;38052;45.944;13.624;2023-04-30T06:10:37;7.72;;;4.55;;
52041;SDS011;38052;45.944;13.624;2023-04-30T06:13:03;5.20;;;3.30;;
52041;SDS011;38052;45.944;13.624;2023-04-30T06:15:29;5.57;;;3.95;;
52041;SDS011;38052;45.944;13.624;2023-04-30T06:17:55;4.57;;;3.72;;
52041;SDS011;38052;45.944;13.624;2023-04-30T06:20:22;9.27;;;3.30;;
52041;SDS011;38052;45.944;13.624;2023-04-30T06:22:48;6.13;;;3.55;;
52041;SDS011;38052;45.944;13.624;2023-04-30T06:25:15;5.13;;;3.55;;
52041;SDS011;38052;45.944;13.624;2023-04-30T06:27:41;5.72;;;3.17;;
52041;SDS011;38052;45.944;13.624;2023-04-30T06:30:08;7.35;;;3.20;;
52041;SDS011;38052;45.944;13.624;2023-04-30T06:32:34;5.15;;;3.30;;
52041;SDS011;38052;45.944;13.624;2023-04-30T06:35:01;3.30;;;2.25;;
52041;SDS011;38052;45.944;13.624;2023-04-30T06:37:28;5.63;;;2.42;;
52041;SDS011;38052;45.944;13.624;2023-04-30T06:39:59;6.63;;;2.00;;
52041;SDS011;38052;45.944;13.624;2023-04-30T06:42:26;4.43;;;2.38;;
52041;SDS011;38052;45.944;13.624;2023-04-30T06:44:58;3.67;;;2.40;;
52041;SDS011;38052;45.944;13.624;2023-04-30T06:47:25;5.55;;;2.20;;
52041;SDS011;38052;45.944;13.624;2023-04-30T06:49:51;2.20;;;1.52;;
52041;SDS011;38052;45.944;13.624;2023-04-30T06:52:18;3.88;;;2.53;;
52041;SDS011;38052;45.944;13.624;2023-04-30T06:54:45;4.00;;;3.10;;
52041;SDS011;38052;45.944;13.624;2023-04-30T06:57:12;3.22;;;2.00;;
52041;SDS011;38052;45.944;13.624;2023-04-30T06:59:38;4.93;;;2.72;;
52041;SDS011;38052;45.944;13.624;2023-04-30T07:02:05;3.67;;;2.10;;
52041;SDS011;38052;45.944;13.624;2023-04-30T07:04:31;4.55;;;2.25;;
52041;SDS011;38052;45.944;13.624;2023-04-30T07:06:58;4.57;;;2.00;;
52041;SDS011;38052;45.944;13.624;2023-04-30T07:09:26;3.90;;;1.70;;
52041;SDS011;38052;45.944;13.624;2023-04-30T07:11:52;3.50;;;2.08;;
52041;SDS011;38052;45.944;13.624;2023-04-30T07:14:19;2.97;;;1.35;;
52041;SDS011;38052;45.944;13.624;2023-04-30T07:16:45;2.95;;;1.88;;
52041;SDS011;38052;45.944;13.624;2023-04-30T07:19:14;4.18;;;1.85;;
52041;SDS011;38052;45.944;13.624;2023-04-30T07:21:41;2.97;;;1.60;;
52041;SDS011;38052;45.944;13.624;2023-04-30T07:24:07;2.42;;;1.33;;
52041;SDS011;38052;45.944;13.624;2023-04-30T07:26:33;3.47;;;1.27;;
52041;SDS011;38052;45.944;13.624;2023-04-30T07:29:00;2.42;;;0.80;;
52041;SDS011;38052;45.944;13.624;2023-04-30T07:31:26;2.33;;;0.95;;
52041;SDS011;38052;45.944;13.624;2023-04-30T07:33:53;3.00;;;0.82;;
52041;SDS011;38052;45.944;13.624;2023-04-30T07:36:20;1.45;;;0.57;;
52041;SDS011;38052;45.944;13.624;2023-04-30T07:38:46;2.13;;;0.50;;
52041;SDS011;38052;45.944;13.624;2023-04-30T07:41:12;2.17;;;0.95;;
52041;SDS011;38052;45.944;13.624;2023-04-30T07:43:39;2.40;;;0.80;;
52041;SDS011;38052;45.944;13.624;2023-04-30T07:46:06;1.55;;;0.77;;
52041;SDS011;38052;45.944;13.624;2023-04-30T07:48:32;1.35;;;0.60;;
52041;SDS011;38052;45.944;13.624;2023-04-30T07:50:59;3.95;;;0.60;;
52041;SDS011;38052;45.944;13.624;2023-04-30T07:53:25;1.73;;;0.93;;
52041;SDS011;38052;45.944;13.624;2023-04-30T07:55:52;3.80;;;0.70;;
52041;SDS011;38052;45.944;13.624;2023-04-30T07:58:19;1.40;;;0.68;;
52041;SDS011;38052;45.944;13.624;2023-04-30T08:00:45;1.05;;;0.50;;
52041;SDS011;38052;45.944;13.624;2023-04-30T08:03:12;1.58;;;0.55;;
52041;SDS011;38052;45.944;13.624;2023-04-30T08:05:38;3.20;;;0.45;;
52041;SDS011;38052;45.944;13.624;2023-04-30T08:08:05;1.58;;;0.73;;
52041;SDS011;38052;45.944;13.624;2023-04-30T08:10:31;2.47;;;0.70;;
52041;SDS011;38052;45.944;13.624;2023-04-30T08:12:58;0.77;;;0.52;;
52041;SDS011;38052;45.944;13.624;2023-04-30T08:15:24;1.83;;;0.70;;
52041;SDS011;38052;45.944;13.624;2023-04-30T08:17:50;1.20;;;0.50;;
52041;SDS011;38052;45.944;13.624;2023-04-30T08:20:17;3.90;;;0.80;;
52041;SDS011;38052;45.944;13.624;2023-04-30T08:22:44;1.60;;;0.75;;
52041;SDS011;38052;45.944;13.624;2023-04-30T08:25:10;1.63;;;0.90;;
52041;SDS011;38052;45.944;13.624;2023-04-30T08:27:37;1.48;;;0.70;;
52041;SDS011;38052;45.944;13.624;2023-04-30T08:30:04;1.60;;;1.08;;
52041;SDS011;38052;45.944;13.624;2023-04-30T08:32:33;1.73;;;1.00;;
52041;SDS011;38052;45.944;13.624;2023-04-30T08:35:00;2.92;;;1.25;;
52041;SDS011;38052;45.944;13.624;2023-04-30T08:37:26;2.15;;;0.85;;
52041;SDS011;38052;45.944;13.624;2023-04-30T08:39:52;1.15;;;0.40;;
52041;SDS011;38052;45.944;13.624;2023-04-30T08:42:19;2.13;;;1.13;;
52041;SDS011;38052;45.944;13.624;2023-04-30T08:44:46;2.58;;;0.50;;
52041;SDS011;38052;45.944;13.624;2023-04-30T08:47:12;1.52;;;0.77;;
52041;SDS011;38052;45.944;13.624;2023-04-30T08:49:40;1.63;;;0.70;;
52041;SDS011;38052;45.944;13.624;2023-04-30T08:52:06;2.80;;;1.02;;
52041;SDS011;38052;45.944;13.624;2023-04-30T08:54:34;1.88;;;0.70;;
52041;SDS011;38052;45.944;13.624;2023-04-30T08:57:00;1.50;;;0.80;;
52041;SDS011;38052;45.944;13.624;2023-04-30T08:59:27;1.75;;;0.57;;
52041;SDS011;38052;45.944;13.624;2023-04-30T09:01:54;1.27;;;0.60;;
52041;SDS011;38052;45.944;13.624;2023-04-30T09:04:20;2.28;;;0.60;;
52041;SDS011;38052;45.944;13.624;2023-04-30T09:06:47;1.13;;;0.40;;
52041;SDS011;38052;45.944;13.624;2023-04-30T09:09:14;0.98;;;0.38;;
52041;SDS011;38052;45.944;13.624;2023-04-30T09:11:40;1.13;;;0.50;;
52041;SDS011;38052;45.944;13.624;2023-04-30T09:14:06;1.15;;;0.45;;
52041;SDS011;38052;45.944;13.624;2023-04-30T09:16:46;1.58;;;0.60;;
52041;SDS011;38052;45.944;13.624;2023-04-30T09:19:22;0.82;;;0.50;;
52041;SDS011;38052;45.944;13.624;2023-04-30T09:21:49;4.45;;;0.77;;
52041;SDS011;38052;45.944;13.624;2023-04-30T09:24:15;1.27;;;0.70;;
52041;SDS011;38052;45.944;13.624;2023-04-30T09:26:42;1.60;;;0.50;;
52041;SDS011;38052;45.944;13.624;2023-04-30T09:29:08;1.05;;;0.68;;
52041;SDS011;38052;45.944;13.624;2023-04-30T09:31:36;0.70;;;0.40;;
52041;SDS011;38052;45.944;13.624;2023-04-30T09:34:02;1.48;;;0.55;;
52041;SDS011;38052;45.944;13.624;2023-04-30T09:36:29;1.05;;;0.52;;
52041;SDS011;38052;45.944;13.624;2023-04-30T09:38:55;1.52;;;0.40;;
52041;SDS011;38052;45.944;13.624;2023-04-30T09:41:23;2.50;;;0.47;;
52041;SDS011;38052;45.944;13.624;2023-04-30T09:43:50;1.10;;;0.40;;
52041;SDS011;38052;45.944;13.624;2023-04-30T09:46:20;1.38;;;0.65;;
52041;SDS011;38052;45.944;13.624;2023-04-30T09:48:46;2.38;;;0.25;;
52041;SDS011;38052;45.944;13.624;2023-04-30T09:51:13;0.75;;;0.40;;
52041;SDS011;38052;45.944;13.624;2023-04-30T09:53:41;0.73;;;0.32;;
52041;SDS011;38052;45.944;13.624;2023-04-30T09:56:08;1.58;;;0.73;;
52041;SDS011;38052;45.944;13.624;2023-04-30T09:58:37;1.58;;;0.52;;
52041;SDS011;38052;45.944;13.624;2023-04-30T10:01:07;1.23;;;0.47;;
52041;SDS011;38052;45.944;13.624;2023-04-30T10:03:38;1.05;;;0.40;;
52041;SDS011;38052;45.944;13.624;2023-04-30T10:06:05;0.77;;;0.40;;
52041;SDS011;38052;45.944;13.624;2023-04-30T10:08:35;0.90;;;0.47;;
52041;SDS011;38052;45.944;13.624;2023-04-30T10:11:06;0.77;;;0.40;;
52041;SDS011;38052;45.944;13.624;2023-04-30T10:13:44;0.75;;;0.43;;
52041;SDS011;38052;45.944;13.624;2023-04-30T10:16:35;0.85;;;0.68;;
52041;SDS011;38052;45.944;13.624;2023-04-30T10:18:59;1.92;;;0.80;;
52041;SDS011;38052;45.944;13.624;2023-04-30T10:21:27;1.42;;;0.73;;
52041;SDS011;38052;45.944;13.624;2023-04-30T10:23:54;1.17;;;0.50;;
52041;SDS011;38052;45.944;13.624;2023-04-30T10:26:20;3.50;;;0.47;;
52041;SDS011;38052;45.944;13.624;2023-04-30T10:28:48;0.70;;;0.35;;
52041;SDS011;38052;45.944;13.624;2023-04-30T10:31:14;2.10;;;0.73;;
52041;SDS011;38052;45.944;13.624;2023-04-30T10:36:39;1.20;;;0.50;;
52041;SDS011;38052;45.944;13.624;2023-04-30T10:39:08;1.70;;;0.40;;
52041;SDS011;38052;45.944;13.624;2023-04-30T10:41:35;1.90;;;0.40;;
52041;SDS011;38052;45.944;13.624;2023-04-30T10:44:02;3.08;;;0.40;;
52041;SDS011;38052;45.944;13.624;2023-04-30T10:46:29;1.30;;;0.60;;
52041;SDS011;38052;45.944;13.624;2023-04-30T10:48:55;1.90;;;0.50;;
52041;SDS011;38052;45.944;13.624;2023-04-30T10:51:21;0.80;;;0.50;;
52041;SDS011;38052;45.944;13.624;2023-04-30T10:53:51;1.98;;;1.20;;
52041;SDS011;38052;45.944;13.624;2023-04-30T10:58:44;2.70;;;0.60;;
52041;SDS011;38052;45.944;13.624;2023-04-30T11:01:14;2.08;;;0.40;;
52041;SDS011;38052;45.944;13.624;2023-04-30T11:03:42;0.57;;;0.40;;
52041;SDS011;38052;45.944;13.624;2023-04-30T11:06:14;3.75;;;0.40;;
52041;SDS011;38052;45.944;13.624;2023-04-30T11:08:45;0.80;;;0.40;;
52041;SDS011;38052;45.944;13.624;2023-04-30T11:11:16;1.27;;;0.45;;
52041;SDS011;38052;45.944;13.624;2023-04-30T11:13:45;0.40;;;0.20;;
52041;SDS011;38052;45.944;13.624;2023-04-30T11:16:14;0.98;;;0.30;;
52041;SDS011;38052;45.944;13.624;2023-04-30T11:18:42;4.32;;;0.43;;
52041;SDS011;38052;45.944;13.624;2023-04-30T11:21:09;0.95;;;0.40;;
52041;SDS011;38052;45.944;13.624;2023-04-30T11:23:35;2.28;;;0.40;;
52041;SDS011;38052;45.944;13.624;2023-04-30T11:26:01;0.60;;;0.30;;
52041;SDS011;38052;45.944;13.624;2023-04-30T11:28:31;0.82;;;0.30;;
52041;SDS011;38052;45.944;13.624;2023-04-30T11:30:59;2.40;;;0.50;;
52041;SDS011;38052;45.944;13.624;2023-04-30T11:33:27;2.63;;;0.28;;
52041;SDS011;38052;45.944;13.624;2023-04-30T11:35:54;1.15;;;0.30;;
52041;SDS011;38052;45.944;13.624;2023-04-30T11:38:33;1.27;;;0.35;;
52041;SDS011;38052;45.944;13.624;2023-04-30T11:41:00;1.73;;;0.40;;
52041;SDS011;38052;45.944;13.624;2023-04-30T11:43:27;1.30;;;0.32;;
52041;SDS011;38052;45.944;13.624;2023-04-30T11:46:00;2.08;;;0.30;;
52041;SDS011;38052;45.944;13.624;2023-04-30T11:48:45;1.67;;;0.45;;
52041;SDS011;38052;45.944;13.624;2023-04-30T11:51:18;0.98;;;0.40;;
52041;SDS011;38052;45.944;13.624;2023-04-30T11:53:46;2.28;;;0.30;;
52041;SDS011;38052;45.944;13.624;2023-04-30T11:56:12;0.50;;;0.28;;
52041;SDS011;38052;45.944;13.624;2023-04-30T11:58:39;0.80;;;0.30;;
52041;SDS011;38052;45.944;13.624;2023-04-30T12:01:06;1.95;;;0.47;;
52041;SDS011;38052;45.944;13.624;2023-04-30T12:04:07;2.40;;;1.33;;
52041;SDS011;38052;45.944;13.624;2023-04-30T12:06:28;0.88;;;0.40;;
52041;SDS011;38052;45.944;13.624;2023-04-30T12:08:55;0.90;;;0.40;;
52041;SDS011;38052;45.944;13.624;2023-04-30T12:11:22;0.40;;;0.20;;
52041;SDS011;38052;45.944;13.624;2023-04-30T12:14:10;0.65;;;0.30;;
52041;SDS011;38052;45.944;13.624;2023-04-30T12:19:05;0.55;;;0.22;;
52041;SDS011;38052;45.944;13.624;2023-04-30T12:21:32;1.33;;;0.40;;
52041;SDS011;38052;45.944;13.624;2023-04-30T12:23:58;1.02;;;0.40;;
52041;SDS011;38052;45.944;13.624;2023-04-30T12:26:32;1.00;;;0.40;;
52041;SDS011;38052;45.944;13.624;2023-04-30T12:28:59;5.40;;;0.70;;
52041;SDS011;38052;45.944;13.624;2023-04-30T12:31:30;3.15;;;0.77;;
52041;SDS011;38052;45.944;13.624;2023-04-30T12:33:56;3.30;;;0.40;;
52041;SDS011;38052;45.944;13.624;2023-04-30T12:36:28;0.73;;;0.40;;
52041;SDS011;38052;45.944;13.624;2023-04-30T12:39:05;0.60;;;0.13;;
52041;SDS011;38052;45.944;13.624;2023-04-30T12:41:36;2.22;;;0.35;;
52041;SDS011;38052;45.944;13.624;2023-04-30T12:46:44;2.42;;;0.43;;
52041;SDS011;38052;45.944;13.624;2023-04-30T12:49:11;1.38;;;0.50;;
52041;SDS011;38052;45.944;13.624;2023-04-30T12:51:38;1.17;;;0.30;;
52041;SDS011;38052;45.944;13.624;2023-04-30T12:54:07;0.57;;;0.47;;
52041;SDS011;38052;45.944;13.624;2023-04-30T12:56:34;0.52;;;0.25;;
52041;SDS011;38052;45.944;13.624;2023-04-30T12:59:00;1.35;;;0.30;;
52041;SDS011;38052;45.944;13.624;2023-04-30T13:01:27;1.95;;;0.40;;
52041;SDS011;38052;45.944;13.624;2023-04-30T13:03:53;2.60;;;0.57;;
52041;SDS011;38052;45.944;13.624;2023-04-30T13:06:20;3.53;;;0.63;;
52041;SDS011;38052;45.944;13.624;2023-04-30T13:08:49;1.13;;;0.40;;
52041;SDS011;38052;45.944;13.624;2023-04-30T13:11:15;0.60;;;0.28;;
52041;SDS011;38052;45.944;13.624;2023-04-30T13:13:42;0.52;;;0.28;;
52041;SDS011;38052;45.944;13.624;2023-04-30T13:16:08;1.10;;;0.40;;
52041;SDS011;38052;45.944;13.624;2023-04-30T13:18:35;0.73;;;0.20;;
52041;SDS011;38052;45.944;13.624;2023-04-30T13:21:03;2.70;;;0.70;;
52041;SDS011;38052;45.944;13.624;2023-04-30T13:23:30;1.08;;;0.30;;
52041;SDS011;38052;45.944;13.624;2023-04-30T13:25:56;0.90;;;0.47;;
52041;SDS011;38052;45.944;13.624;2023-04-30T13:28:23;0.95;;;0.40;;
52041;SDS011;38052;45.944;13.624;2023-04-30T13:30:50;1.50;;;0.35;;
52041;SDS011;38052;45.944;13.624;2023-04-30T13:33:16;1.00;;;0.40;;
52041;SDS011;38052;45.944;13.624;2023-04-30T13:35:43;0.90;;;0.50;;
52041;SDS011;38052;45.944;13.624;2023-04-30T13:38:10;1.15;;;0.40;;
52041;SDS011;38052;45.944;13.624;2023-04-30T13:40:37;1.30;;;0.22;;
52041;SDS011;38052;45.944;13.624;2023-04-30T13:43:03;0.90;;;0.20;;
52041;SDS011;38052;45.944;13.624;2023-04-30T13:45:30;1.67;;;0.30;;
52041;SDS011;38052;45.944;13.624;2023-04-30T13:47:57;0.73;;;0.40;;
52041;SDS011;38052;45.944;13.624;2023-04-30T13:50:24;1.25;;;0.82;;
52041;SDS011;38052;45.944;13.624;2023-04-30T13:52:50;0.77;;;0.30;;
52041;SDS011;38052;45.944;13.624;2023-04-30T13:55:17;0.57;;;0.30;;
52041;SDS011;38052;45.944;13.624;2023-04-30T13:57:43;0.95;;;0.30;;
52041;SDS011;38052;45.944;13.624;2023-04-30T14:00:10;1.20;;;0.40;;
52041;SDS011;38052;45.944;13.624;2023-04-30T14:02:36;1.25;;;0.40;;
52041;SDS011;38052;45.944;13.624;2023-04-30T14:05:03;1.13;;;0.30;;
52041;SDS011;38052;45.944;13.624;2023-04-30T14:07:30;0.40;;;0.25;;
52041;SDS011;38052;45.944;13.624;2023-04-30T14:09:57;1.13;;;0.40;;
52041;SDS011;38052;45.944;13.624;2023-04-30T14:12:23;1.50;;;0.20;;
52041;SDS011;38052;45.944;13.624;2023-04-30T14:14:49;0.40;;;0.28;;
52041;SDS011;38052;45.944;13.624;2023-04-30T14:17:16;0.50;;;0.20;;
52041;SDS011;38052;45.944;13.624;2023-04-30T14:19:42;0.35;;;0.20;;
52041;SDS011;38052;45.944;13.624;2023-04-30T14:22:09;1.52;;;0.40;;
52041;SDS011;38052;45.944;13.624;2023-04-30T14:24:35;0.70;;;0.40;;
52041;SDS011;38052;45.944;13.624;2023-04-30T14:27:02;4.03;;;0.52;;
52041;SDS011;38052;45.944;13.624;2023-04-30T14:29:28;0.52;;;0.30;;
52041;SDS011;38052;45.944;13.624;2023-04-30T14:31:55;0.80;;;0.45;;
52041;SDS011;38052;45.944;13.624;2023-04-30T14:34:21;0.50;;;0.20;;
52041;SDS011;38052;45.944;13.624;2023-04-30T14:36:51;2.05;;;0.47;;
52041;SDS011;38052;45.944;13.624;2023-04-30T14:39:18;0.60;;;0.20;;
52041;SDS011;38052;45.944;13.624;2023-04-30T14:41:44;0.55;;;0.25;;
52041;SDS011;38052;45.944;13.624;2023-04-30T14:44:11;2.22;;;0.22;;
52041;SDS011;38052;45.944;13.624;2023-04-30T14:46:38;2.88;;;0.35;;
52041;SDS011;38052;45.944;13.624;2023-04-30T14:49:04;1.42;;;0.30;;
52041;SDS011;38052;45.944;13.624;2023-04-30T14:51:31;0.57;;;0.30;;
52041;SDS011;38052;45.944;13.624;2023-04-30T14:53:58;1.13;;;0.60;;
52041;SDS011;38052;45.944;13.624;2023-04-30T14:56:25;1.98;;;1.00;;
52041;SDS011;38052;45.944;13.624;2023-04-30T14:58:51;2.53;;;0.60;;
52041;SDS011;38052;45.944;13.624;2023-04-30T15:01:17;3.00;;;0.95;;